Cosco Kaohsiung — VREM3 — position and weather

sailwx.info

Track history (hours):
 
Tides and Currents Weather Stations Pressure Air Temp Water Temp Dewpoint Dewpoint Depression Visibility Wind Speed Wind Dir Waves Ship Positions

Cosco Kaohsiung

Last reported at 2014-Dec-14 07:28 UTC. Time now 2014-Dec-19 02:19 UTC.
Position N 30°29' E 122°17'.

Length 349 m; draft 7.8 m.

Type: Ship (hazmat cat A). MMSI: 477136800.

Date/timePositionNaut miles runAvg speedWind from/ knotsBaromVisibWave heightAir tempDewpointWater temp
2014-Dec-14 07:28N 30°29' E 122°17'2 1.8
2014-Dec-14 06:33N 30°29' E 122°19'0 0.0
2014-Dec-14 03:31N 30°29' E 122°19'0 0.2
2014-Dec-14 02:22N 30°29' E 122°20'0 0.0
2014-Dec-14 01:31N 30°29' E 122°20'0 0.0
2014-Dec-14 00:22N 30°29' E 122°20'0 0.0
2014-Dec-13 23:19N 30°29' E 122°20'0 0.0
2014-Dec-13 12:16N 30°29' E 122°20'0 0.0
2014-Dec-13 11:04N 30°29' E 122°20'0 0.1
2014-Dec-13 07:33N 30°29' E 122°19'0 0.0
2014-Dec-13 02:29N 30°29' E 122°19'4 3.8
2014-Dec-13 01:33N 30°30' E 122°23'1110.3
2014-Dec-13 00:31N 30°29' E 122°35'6 0.3
2014-Dec-12 01:32N 30°27' E 122°42'0 0.0
2014-Dec-12 00:14N 30°27' E 122°42'0 0.0
2014-Dec-11 23:32N 30°27' E 122°42'0 0.0
2014-Dec-11 08:14N 30°27' E 122°42'0 0.0
2014-Dec-11 07:32N 30°27' E 122°42'0 0.0
2014-Dec-11 06:20N 30°27' E 122°42'0 0.0
2014-Dec-11 02:15N 30°27' E 122°42'9 8.2
2014-Dec-11 01:10N 30°34' E 122°48'6 9.8
2014-Dec-11 00:32N 30°37' E 122°55'338 9.8
2014-Dec-09 14:04N 35°57' E 120°44'711.6
2014-Dec-09 13:29N 35°58' E 120°35'1211.6
2014-Dec-09 12:28N 36°01' E 120°21'7 0.3
2014-Dec-08 13:08N 35°60' E 120°13'3 4.8
2014-Dec-08 12:32N 36°02' E 120°15'1212.3
2014-Dec-08 11:33N 36°00' E 120°30'  
Track history (hours):
 
Tides and Currents Weather Stations Pressure Air Temp Water Temp Dewpoint Dewpoint Depression Visibility Wind Speed Wind Dir Waves Ship Positions

Cosco Kaohsiung

Last reported at 2014-Dec-14 07:28 UTC. Time now 2014-Dec-19 02:19 UTC.
Position N 30°29' E 122°17'.

Length 349 m; draft 7.8 m.

Type: Ship (hazmat cat A). MMSI: 477136800.

Date/timePositionNaut miles runAvg speedWind from/ knotsBaromVisibWave heightAir tempDewpointWater temp
2014-Dec-14 07:28N 30°29' E 122°17'2 1.8
2014-Dec-14 06:33N 30°29' E 122°19'0 0.0
2014-Dec-14 03:31N 30°29' E 122°19'0 0.2
2014-Dec-14 02:22N 30°29' E 122°20'0 0.0
2014-Dec-14 01:31N 30°29' E 122°20'0 0.0
2014-Dec-14 00:22N 30°29' E 122°20'0 0.0
2014-Dec-13 23:19N 30°29' E 122°20'0 0.0
2014-Dec-13 12:16N 30°29' E 122°20'0 0.0
2014-Dec-13 11:04N 30°29' E 122°20'0 0.1
2014-Dec-13 07:33N 30°29' E 122°19'0 0.0
2014-Dec-13 02:29N 30°29' E 122°19'4 3.8
2014-Dec-13 01:33N 30°30' E 122°23'1110.3
2014-Dec-13 00:31N 30°29' E 122°35'6 0.3
2014-Dec-12 01:32N 30°27' E 122°42'0 0.0
2014-Dec-12 00:14N 30°27' E 122°42'0 0.0
2014-Dec-11 23:32N 30°27' E 122°42'0 0.0
2014-Dec-11 08:14N 30°27' E 122°42'0 0.0
2014-Dec-11 07:32N 30°27' E 122°42'0 0.0
2014-Dec-11 06:20N 30°27' E 122°42'0 0.0
2014-Dec-11 02:15N 30°27' E 122°42'9 8.2
2014-Dec-11 01:10N 30°34' E 122°48'6 9.8
2014-Dec-11 00:32N 30°37' E 122°55'338 9.8
2014-Dec-09 14:04N 35°57' E 120°44'711.6
2014-Dec-09 13:29N 35°58' E 120°35'1211.6
2014-Dec-09 12:28N 36°01' E 120°21'7 0.3
2014-Dec-08 13:08N 35°60' E 120°13'3 4.8
2014-Dec-08 12:32N 36°02' E 120°15'1212.3
2014-Dec-08 11:33N 36°00' E 120°30'  

Dump ship's entire track history